SIA326D WSSS-EDDF
Flight info
| Callsign | SIA326D |
|---|---|
| Flight time | N/A |
| Altitude | 32000 |
| Route | AROSO3A AROSO Y513 KALIL Y501 RINBA Y502 DUBAX R325 PUT L759 NISUN/N0508F340 L759 KKJ L333 JJP/N0506F360 L333 MERUN L750 RANAH B449 ETRAP/N0493F380 B449 DUKAN L850 ADEKI DCT BADIR DCT LAGAS DCT FOQUS DCT SARPI UM10 TIVUG UL852 NEGEM T746 ARGES DCT MOPUG DCT ARSIN DCT SUBEN DCT AKINI T161 DEBHI DEBHI1B |
| Aircraft | A388/J-SADE2E3FGHIJ3J4J5M1RWXY/LB1D1 |
Departure
| Time | 2026-05-04 14:02 |
|---|---|
| Airport | Singapore Changi Airport (WSSS) |
Arrival
| Time | N/A |
|---|---|
| Airport | Frankfurt Main Airport (EDDF) |
| Time | Latitude | Longitude | Altitude | Speed | Heading |
|---|---|---|---|---|---|
| 2026-05-04 13:25 | 1.35774 | 103.98514 | 30 ft | 0 kts | 70° |
| 2026-05-04 13:50 | 1.35769 | 103.98498 | 30 ft | 4 kts | 73° |
| 2026-05-04 13:50 | 1.35761 | 103.98472 | 27 ft | 4 kts | 72° |
| 2026-05-04 13:51 | 1.35751 | 103.98450 | 28 ft | 4 kts | 50° |
| 2026-05-04 13:51 | 1.35734 | 103.98438 | 27 ft | 4 kts | 23° |
| 2026-05-04 13:51 | 1.35716 | 103.98435 | 27 ft | 4 kts | 346° |
| 2026-05-04 13:51 | 1.35703 | 103.98443 | 27 ft | 4 kts | 303° |
| 2026-05-04 13:52 | 1.35687 | 103.98478 | 30 ft | 0 kts | 292° |
| 2026-05-04 13:55 | 1.35694 | 103.98463 | 30 ft | 4 kts | 292° |
| 2026-05-04 13:55 | 1.35707 | 103.98425 | 30 ft | 7 kts | 280° |
| 2026-05-04 13:56 | 1.35697 | 103.98383 | 30 ft | 7 kts | 225° |
| 2026-05-04 13:56 | 1.35648 | 103.98358 | 30 ft | 10 kts | 202° |
| 2026-05-04 13:56 | 1.35496 | 103.98293 | 30 ft | 13 kts | 203° |
| 2026-05-04 13:57 | 1.35404 | 103.98254 | 30 ft | 16 kts | 202° |
| 2026-05-04 13:57 | 1.35298 | 103.98212 | 31 ft | 17 kts | 201° |
| 2026-05-04 13:58 | 1.34967 | 103.98073 | 30 ft | 18 kts | 204° |
| 2026-05-04 13:58 | 1.34812 | 103.97994 | 30 ft | 7 kts | 253° |
| 2026-05-04 13:58 | 1.34823 | 103.97955 | 30 ft | 7 kts | 293° |
| 2026-05-04 13:59 | 1.34837 | 103.97923 | 31 ft | 4 kts | 293° |
| 2026-05-04 13:59 | 1.34846 | 103.97900 | 31 ft | 2 kts | 292° |
| 2026-05-04 13:59 | 1.34857 | 103.97875 | 32 ft | 2 kts | 292° |
| 2026-05-04 14:00 | 1.34863 | 103.97861 | 32 ft | 3 kts | 292° |
| 2026-05-04 14:00 | 1.34888 | 103.97800 | 34 ft | 7 kts | 296° |
| 2026-05-04 14:00 | 1.34920 | 103.97763 | 35 ft | 5 kts | 345° |
| 2026-05-04 14:01 | 1.34957 | 103.97770 | 35 ft | 7 kts | 22° |
| 2026-05-04 14:01 | 1.35011 | 103.97794 | 34 ft | 14 kts | 22° |
| 2026-05-04 14:01 | 1.35974 | 103.98198 | 32 ft | 138 kts | 23° |
| 2026-05-04 14:02 | 1.36995 | 103.98631 | 36 ft | 177 kts | 22° |
| 2026-05-04 14:02 | 1.38152 | 103.99136 | 399 ft | 179 kts | 24° |
| 2026-05-04 14:02 | 1.39302 | 103.99647 | 825 ft | 183 kts | 23° |
| 2026-05-04 14:02 | 1.40523 | 104.00163 | 1105 ft | 195 kts | 22° |
| 2026-05-04 14:03 | 1.41800 | 104.00699 | 1418 ft | 204 kts | 23° |
| 2026-05-04 14:03 | 1.43121 | 104.01274 | 1604 ft | 211 kts | 24° |
| 2026-05-04 14:03 | 1.44490 | 104.01876 | 1720 ft | 218 kts | 24° |
| 2026-05-04 14:03 | 1.45908 | 104.02493 | 1812 ft | 226 kts | 24° |
| 2026-05-04 14:04 | 1.49056 | 104.03789 | 2212 ft | 259 kts | 18° |
| 2026-05-04 14:04 | 1.50839 | 104.04026 | 2548 ft | 266 kts | 353° |
| 2026-05-04 14:04 | 1.52609 | 104.03452 | 2972 ft | 272 kts | 329° |
| 2026-05-04 14:05 | 1.55751 | 104.01392 | 4263 ft | 270 kts | 327° |
| 2026-05-04 14:05 | 1.57376 | 104.00416 | 4793 ft | 274 kts | 331° |
| 2026-05-04 14:05 | 1.59069 | 103.99512 | 5323 ft | 277 kts | 332° |
| 2026-05-04 14:06 | 1.60776 | 103.98631 | 5963 ft | 276 kts | 333° |
| 2026-05-04 14:06 | 1.62503 | 103.97760 | 6457 ft | 280 kts | 333° |
| 2026-05-04 14:06 | 1.64253 | 103.96885 | 6990 ft | 282 kts | 333° |
| 2026-05-04 14:06 | 1.66018 | 103.96004 | 7472 ft | 285 kts | 333° |
| 2026-05-04 14:07 | 1.67794 | 103.95115 | 7990 ft | 286 kts | 333° |
| 2026-05-04 14:07 | 1.69590 | 103.94215 | 8462 ft | 289 kts | 333° |
| 2026-05-04 14:07 | 1.71397 | 103.93310 | 8984 ft | 292 kts | 333° |
| 2026-05-04 14:07 | 1.73220 | 103.92396 | 9477 ft | 294 kts | 333° |
| 2026-05-04 14:08 | 1.75014 | 103.91390 | 9952 ft | 297 kts | 324° |
| 2026-05-04 14:08 | 1.76571 | 103.90005 | 10203 ft | 308 kts | 311° |
| 2026-05-04 14:08 | 1.77905 | 103.88267 | 10342 ft | 322 kts | 307° |
| 2026-05-04 14:08 | 1.79283 | 103.86445 | 10467 ft | 335 kts | 307° |
| 2026-05-04 14:09 | 1.82206 | 103.82657 | 10944 ft | 353 kts | 308° |
| 2026-05-04 14:09 | 1.83715 | 103.80708 | 11385 ft | 355 kts | 308° |
| 2026-05-04 14:10 | 1.86763 | 103.76767 | 12237 ft | 361 kts | 308° |
| 2026-05-04 14:10 | 1.88306 | 103.74770 | 12677 ft | 364 kts | 308° |
| 2026-05-04 14:10 | 1.89861 | 103.72757 | 13097 ft | 367 kts | 308° |
| 2026-05-04 14:10 | 1.91427 | 103.70727 | 13504 ft | 370 kts | 308° |
| 2026-05-04 14:11 | 1.93001 | 103.68680 | 13903 ft | 373 kts | 308° |
| 2026-05-04 14:11 | 1.96186 | 103.64537 | 14679 ft | 379 kts | 308° |
| 2026-05-04 14:11 | 1.97799 | 103.62441 | 15036 ft | 381 kts | 308° |
| 2026-05-04 14:12 | 1.99422 | 103.60332 | 15409 ft | 384 kts | 308° |
| 2026-05-04 14:12 | 2.01058 | 103.58205 | 15764 ft | 387 kts | 308° |
| 2026-05-04 14:12 | 2.04365 | 103.53907 | 16492 ft | 392 kts | 309° |
| 2026-05-04 14:13 | 2.06033 | 103.51737 | 16824 ft | 395 kts | 309° |
| 2026-05-04 14:13 | 2.07696 | 103.49576 | 17174 ft | 398 kts | 309° |
| 2026-05-04 14:13 | 2.09387 | 103.47377 | 17555 ft | 400 kts | 309° |
| 2026-05-04 14:13 | 2.11089 | 103.45165 | 17887 ft | 403 kts | 309° |
| 2026-05-04 14:14 | 2.12795 | 103.42936 | 18215 ft | 406 kts | 307° |
| 2026-05-04 14:14 | 2.15403 | 103.37895 | 18832 ft | 411 kts | 289° |
| 2026-05-04 14:14 | 2.16205 | 103.35142 | 19121 ft | 413 kts | 286° |
| 2026-05-04 14:15 | 2.17835 | 103.29603 | 19704 ft | 417 kts | 291° |
| 2026-05-04 14:15 | 2.21106 | 103.24910 | 20269 ft | 415 kts | 323° |
| 2026-05-04 14:16 | 2.25662 | 103.21387 | 20799 ft | 419 kts | 324° |
| 2026-05-04 14:16 | 2.27971 | 103.19595 | 21085 ft | 420 kts | 323° |
| 2026-05-04 14:17 | 2.32605 | 103.15991 | 21654 ft | 424 kts | 323° |
| 2026-05-04 14:17 | 2.34945 | 103.14170 | 21916 ft | 425 kts | 323° |
| 2026-05-04 14:17 | 2.39632 | 103.10525 | 22481 ft | 428 kts | 323° |
| 2026-05-04 14:18 | 2.41983 | 103.08696 | 22741 ft | 430 kts | 323° |
| 2026-05-04 14:18 | 2.46724 | 103.05008 | 23269 ft | 433 kts | 323° |
| 2026-05-04 14:19 | 2.51489 | 103.01302 | 23748 ft | 436 kts | 323° |
| 2026-05-04 14:19 | 2.53859 | 102.99458 | 23942 ft | 437 kts | 323° |
| 2026-05-04 14:19 | 2.56265 | 102.97586 | 24165 ft | 438 kts | 323° |
| 2026-05-04 14:19 | 2.58681 | 102.95708 | 24365 ft | 440 kts | 323° |
| 2026-05-04 14:20 | 2.61109 | 102.93819 | 24571 ft | 442 kts | 323° |
| 2026-05-04 14:20 | 2.63538 | 102.91930 | 24768 ft | 443 kts | 323° |
| 2026-05-04 14:20 | 2.65980 | 102.90030 | 24973 ft | 445 kts | 323° |
| 2026-05-04 14:21 | 2.70877 | 102.86219 | 25363 ft | 448 kts | 323° |
| 2026-05-04 14:21 | 2.73338 | 102.84303 | 25578 ft | 449 kts | 323° |
| 2026-05-04 14:21 | 2.75812 | 102.82378 | 25783 ft | 451 kts | 323° |
| 2026-05-04 14:21 | 2.78290 | 102.80449 | 25990 ft | 452 kts | 323° |
| 2026-05-04 14:22 | 2.80775 | 102.78514 | 26206 ft | 453 kts | 323° |
| 2026-05-04 14:22 | 2.83236 | 102.76598 | 26387 ft | 455 kts | 323° |
| 2026-05-04 14:22 | 2.85732 | 102.74655 | 26647 ft | 456 kts | 323° |
| 2026-05-04 14:22 | 2.88249 | 102.72695 | 26872 ft | 457 kts | 323° |
| 2026-05-04 14:23 | 2.93293 | 102.68768 | 27308 ft | 461 kts | 323° |
| 2026-05-04 14:23 | 2.95832 | 102.66791 | 27547 ft | 462 kts | 323° |
| 2026-05-04 14:23 | 2.98369 | 102.64816 | 27740 ft | 464 kts | 323° |
| 2026-05-04 14:24 | 3.00928 | 102.62823 | 27958 ft | 466 kts | 323° |
| 2026-05-04 14:24 | 3.03492 | 102.60826 | 28205 ft | 468 kts | 323° |
| 2026-05-04 14:24 | 3.06064 | 102.58823 | 28448 ft | 470 kts | 323° |
| 2026-05-04 14:24 | 3.08649 | 102.56810 | 28692 ft | 472 kts | 323° |
| 2026-05-04 14:25 | 3.11244 | 102.54788 | 28954 ft | 473 kts | 323° |
| 2026-05-04 14:25 | 3.16428 | 102.50749 | 29444 ft | 477 kts | 323° |
| 2026-05-04 14:25 | 3.19053 | 102.48704 | 29710 ft | 479 kts | 323° |
| 2026-05-04 14:26 | 3.21691 | 102.46649 | 29983 ft | 481 kts | 323° |
| 2026-05-04 14:26 | 3.24339 | 102.44585 | 30218 ft | 483 kts | 323° |
| 2026-05-04 14:26 | 3.26993 | 102.42517 | 30497 ft | 484 kts | 323° |
| 2026-05-04 14:26 | 3.29658 | 102.40440 | 30767 ft | 486 kts | 323° |
| 2026-05-04 14:27 | 3.32328 | 102.38359 | 31015 ft | 488 kts | 323° |
| 2026-05-04 14:27 | 3.35014 | 102.36265 | 31286 ft | 489 kts | 323° |
| 2026-05-04 14:27 | 3.37706 | 102.34167 | 31599 ft | 489 kts | 323° |
| 2026-05-04 14:27 | 3.40361 | 102.32097 | 31846 ft | 491 kts | 323° |
| 2026-05-04 14:28 | 3.50802 | 102.23958 | 31906 ft | 518 kts | 323° |